createdAt,value
2024-05-09T00:01:57.550Z,101726.66
2024-05-09T00:04:28.253Z,101728.44
2024-05-09T00:06:58.864Z,101729.34
2024-05-09T00:09:29.386Z,101732.88
2024-05-09T00:12:00.297Z,101725.84
2024-05-09T00:14:31.100Z,101735.47
2024-05-09T00:17:04.403Z,101730.13
2024-05-09T00:19:35.040Z,101728.31
2024-05-09T00:22:05.700Z,101732.69
2024-05-09T00:24:36.180Z,101729.97
2024-05-09T00:27:08.335Z,101727.44
2024-05-09T00:29:39.082Z,101724.84
2024-05-09T00:32:12.751Z,101723.09
2024-05-09T00:34:45.489Z,101700.13
2024-05-09T00:37:16.453Z,101724.81
2024-05-09T00:39:47.191Z,101722.97
2024-05-09T00:42:17.881Z,101715.88
2024-05-09T00:44:48.432Z,101723.72
2024-05-09T00:47:21.645Z,101674.28
2024-05-09T00:49:52.372Z,101720.13
2024-05-09T00:52:23.714Z,101719.22
2024-05-09T00:54:54.389Z,101719.22
2024-05-09T00:57:25.422Z,101722.72
2024-05-09T00:59:57.056Z,101706.06
2024-05-09T01:02:31.041Z,101729.88
2024-05-09T01:05:01.751Z,101723.63
2024-05-09T01:07:32.682Z,101722.66
2024-05-09T01:10:05.499Z,101730.41
2024-05-09T01:12:37.832Z,101731.16
2024-05-09T01:15:08.931Z,101730.13
2024-05-09T01:17:42.538Z,101665.47
2024-05-09T01:20:20.007Z,101723.72
2024-05-09T01:22:58.842Z,101718.28
2024-05-09T01:25:32.965Z,101727.84
2024-05-09T01:28:03.714Z,101727.75
2024-05-09T01:30:36.751Z,101718.91
2024-05-09T01:33:10.749Z,101726.78
2024-05-09T01:35:43.425Z,101726.81
2024-05-09T01:38:17.244Z,101729.44
2024-05-09T01:40:51.385Z,101728.47
2024-05-09T01:43:22.089Z,101730.13
2024-05-09T01:45:52.678Z,101723.84
2024-05-09T01:48:23.367Z,101723.75
2024-05-09T01:50:54.016Z,101718.44
2024-05-09T01:53:24.606Z,101720.97
2024-05-09T01:55:57.647Z,101672.31
2024-05-09T01:58:28.361Z,101721.78
2024-05-09T02:00:58.969Z,101719.97
2024-05-09T02:03:29.787Z,101721.69
2024-05-09T02:06:00.755Z,101717.28
2024-05-09T02:08:31.393Z,101723.34
2024-05-09T02:11:04.455Z,101676.41
2024-05-09T02:13:34.949Z,101725.88
2024-05-09T02:16:05.573Z,101717.97
2024-05-09T02:18:36.295Z,101718.16
2024-05-09T02:21:07.142Z,101723.53
2024-05-09T02:23:37.852Z,101723.56
2024-05-09T02:26:10.923Z,101689.97
2024-05-09T02:28:41.410Z,101730.44
2024-05-09T02:31:15.048Z,101716.28
2024-05-09T02:33:45.790Z,101723.34
2024-05-09T02:36:16.534Z,101737.25
2024-05-09T02:38:44.435Z,101732.84
2024-05-09T02:41:17.241Z,101739.81
2024-05-09T02:43:45.262Z,101732.69
2024-05-09T02:46:15.803Z,101730.91
2024-05-09T02:48:43.974Z,101729.94
2024-05-09T02:51:14.588Z,101732.38
2024-05-09T02:53:42.527Z,101727.81
2024-05-09T02:56:13.212Z,101732.03
2024-05-09T02:58:43.516Z,101602.09
2024-05-09T03:01:14.081Z,101722.22
2024-05-09T03:03:45.332Z,101681.47
2024-05-09T03:06:15.893Z,101725.59
2024-05-09T03:08:45.689Z,101683.97
2024-05-09T03:11:24.515Z,101715.81
2024-05-09T03:13:55.560Z,101687.28
2024-05-09T03:16:26.110Z,101728.75
2024-05-09T03:18:54.782Z,101725.25
2024-05-09T03:21:25.575Z,101726.94
2024-05-09T03:23:53.546Z,101723.41
2024-05-09T03:26:24.192Z,101729.53
2024-05-09T03:28:54.502Z,101593.41
2024-05-09T03:31:25.145Z,101730.41
2024-05-09T03:33:55.685Z,101725.13
2024-05-09T03:36:23.696Z,101728.69
2024-05-09T03:38:54.179Z,101723.47
2024-05-09T03:41:24.743Z,101729.63
2024-05-09T03:43:57.665Z,101691.66
2024-05-09T03:46:28.219Z,101728.03
2024-05-09T03:48:56.307Z,101720.16
2024-05-09T03:51:26.883Z,101725.47
2024-05-09T03:53:55.185Z,101721.16
2024-05-09T03:56:25.812Z,101724.72
2024-05-09T03:58:57.499Z,101726.59
2024-05-09T04:01:30.117Z,101723.22
2024-05-09T04:03:58.218Z,101715.50
2024-05-09T04:06:29.564Z,101590.94
2024-05-09T04:08:57.442Z,101715.84
2024-05-09T04:11:27.960Z,101710.84
2024-05-09T04:13:58.218Z,101710.09
2024-05-09T04:16:28.787Z,101715.47
2024-05-09T04:18:56.799Z,101713.84
2024-05-09T04:21:27.325Z,101712.22
2024-05-09T04:23:57.860Z,101715.00
2024-05-09T04:26:25.718Z,101717.75
2024-05-09T04:28:56.325Z,101722.25
2024-05-09T04:31:26.554Z,101609.28
2024-05-09T04:33:57.239Z,101717.22
2024-05-09T04:36:25.202Z,101727.00
2024-05-09T04:38:55.762Z,101731.47
2024-05-09T04:41:23.717Z,101737.81
2024-05-09T04:43:54.318Z,101733.53
2024-05-09T04:46:22.233Z,101728.44
2024-05-09T04:48:55.598Z,101687.06
2024-05-09T04:51:23.565Z,101733.97
2024-05-09T04:53:54.063Z,101734.94
2024-05-09T04:56:22.023Z,101741.22
2024-05-09T04:58:52.569Z,101738.69
2024-05-09T05:01:20.597Z,101743.19
2024-05-09T05:03:51.358Z,101743.31
2024-05-09T05:06:24.994Z,101740.78
2024-05-09T05:08:52.912Z,101739.97
2024-05-09T05:11:23.570Z,101750.66
2024-05-09T05:13:51.835Z,101745.44
2024-05-09T05:16:22.365Z,101748.19
2024-05-09T05:18:50.401Z,101750.91
2024-05-09T05:21:21.271Z,101751.81
2024-05-09T05:23:51.510Z,101695.41
2024-05-09T05:26:22.267Z,101754.50
2024-05-09T05:28:51.004Z,101756.28
2024-05-09T05:31:21.609Z,101761.56
2024-05-09T05:33:49.689Z,101766.88
2024-05-09T05:36:20.450Z,101762.44
2024-05-09T05:38:51.116Z,101765.09
2024-05-09T05:41:21.775Z,101758.91
2024-05-09T05:43:49.735Z,101759.75
2024-05-09T05:46:20.394Z,101764.16
2024-05-09T05:48:48.358Z,101761.50
2024-05-09T05:51:19.143Z,101757.06
2024-05-09T05:53:47.153Z,101761.44
2024-05-09T05:56:20.183Z,101754.38
2024-05-09T05:58:49.082Z,101757.00
2024-05-09T06:01:19.723Z,101755.25
2024-05-09T06:03:47.691Z,101753.44
2024-05-09T06:06:18.366Z,101756.94
2024-05-09T06:08:46.340Z,101757.81
2024-05-09T06:11:19.693Z,101759.56
2024-05-09T06:13:47.697Z,101763.06
2024-05-09T06:16:18.334Z,101762.16
2024-05-09T06:18:46.908Z,101763.00
2024-05-09T06:21:19.862Z,101634.44
2024-05-09T06:23:48.237Z,101724.19
2024-05-09T06:26:21.574Z,101756.75
2024-05-09T06:28:49.370Z,101751.44
2024-05-09T06:31:19.909Z,101761.94
2024-05-09T06:33:47.892Z,101771.63
2024-05-09T06:36:18.421Z,101775.97
2024-05-09T06:38:46.473Z,101765.31
2024-05-09T06:41:37.304Z,101773.19
2024-05-09T06:44:08.113Z,101759.81
2024-05-09T06:46:40.257Z,101642.66
2024-05-09T06:49:08.935Z,101739.34
2024-05-09T06:51:40.070Z,101715.44
2024-05-09T06:54:08.923Z,101733.00
2024-05-09T06:56:39.961Z,101768.91
2024-05-09T06:59:10.634Z,101714.28
2024-05-09T07:01:41.263Z,101764.34
2024-05-09T07:04:09.803Z,101765.16
2024-05-09T07:06:40.781Z,101772.16
2024-05-09T07:09:09.190Z,101765.00
2024-05-09T07:11:40.547Z,101770.28
2024-05-09T07:14:11.320Z,101702.44
2024-05-09T07:16:41.965Z,101770.09
2024-05-09T07:19:10.215Z,101768.25
2024-05-09T07:21:40.925Z,101769.06
2024-05-09T07:24:08.915Z,101774.28
2024-05-09T07:26:39.197Z,101613.28
2024-05-09T07:29:13.667Z,101778.53
2024-05-09T07:31:44.382Z,101775.75
2024-05-09T07:34:16.584Z,101782.72
2024-05-09T07:36:47.382Z,101779.00
2024-05-09T07:39:15.366Z,101783.22
2024-05-09T07:41:45.763Z,101648.59
2024-05-09T07:44:16.046Z,101776.75
2024-05-09T07:47:48.616Z,101776.63
2024-05-09T07:54:40.007Z,101765.53
2024-05-09T07:57:10.666Z,101766.34
2024-05-09T07:59:41.465Z,101765.34
2024-05-09T08:02:12.282Z,101769.66
2024-05-09T08:04:40.292Z,101770.38
2024-05-09T08:07:11.063Z,101763.91
2024-05-09T08:09:39.860Z,101766.47
2024-05-09T08:12:12.900Z,101698.72
2024-05-09T08:14:43.239Z,101778.47
2024-05-09T08:17:14.273Z,101780.84
2024-05-09T08:19:42.192Z,101784.34
2024-05-09T08:22:15.942Z,101784.19
2024-05-09T08:24:45.717Z,101775.94
2024-05-09T08:27:16.155Z,101776.75
2024-05-09T08:29:46.689Z,101756.63
2024-05-09T08:32:17.218Z,101768.88
2024-05-09T08:34:45.139Z,101770.25
2024-05-09T08:37:21.501Z,101674.38
2024-05-09T08:39:51.529Z,101768.28
2024-05-09T08:42:26.299Z,101684.81
2024-05-09T08:44:57.587Z,101758.63
2024-05-09T08:47:31.487Z,101659.22
2024-05-09T08:52:34.495Z,101769.59
2024-05-09T08:55:03.233Z,101778.19
2024-05-09T08:57:43.572Z,101713.09
2024-05-09T09:00:21.727Z,101763.84
2024-05-09T09:03:02.632Z,101712.66
2024-05-09T09:05:33.494Z,101689.78
2024-05-09T09:08:07.747Z,101772.28
2024-05-09T09:10:35.997Z,101779.34
2024-05-09T09:13:09.746Z,101773.97
2024-05-09T09:15:50.444Z,101753.47
2024-05-09T09:18:21.342Z,101738.84
2024-05-09T09:20:50.255Z,101688.34
2024-05-09T09:23:20.918Z,101773.50
2024-05-09T09:25:48.575Z,101749.81
2024-05-09T09:28:19.101Z,101771.63
2024-05-09T09:30:49.382Z,101709.13
2024-05-09T09:33:21.620Z,101731.59
2024-05-09T09:35:49.313Z,101718.78
2024-05-09T09:38:25.882Z,101761.28
2024-05-09T09:40:53.815Z,101732.06
2024-05-09T09:43:25.144Z,101738.28
2024-05-09T09:45:59.962Z,101739.63
2024-05-09T09:48:33.450Z,101736.97
2024-05-09T09:51:01.821Z,101773.13
2024-05-09T09:53:34.500Z,101773.16
2024-05-09T09:56:04.835Z,101771.19
2024-05-09T09:58:37.826Z,101777.03
2024-05-09T10:01:08.331Z,101759.47
2024-05-09T10:03:39.338Z,101767.66
2024-05-09T10:06:10.729Z,101762.59
2024-05-09T10:08:42.414Z,101760.91
2024-05-09T10:11:12.473Z,101725.66
2024-05-09T10:13:45.350Z,101782.41
2024-05-09T10:16:22.016Z,101754.81
2024-05-09T10:18:53.002Z,101761.88
2024-05-09T10:21:21.681Z,101769.28
2024-05-09T10:24:02.895Z,101729.28
2024-05-09T10:26:32.997Z,101753.44
2024-05-09T10:29:06.409Z,101765.19
2024-05-09T10:31:41.541Z,101772.03
2024-05-09T10:34:20.718Z,101761.91
2024-05-09T10:36:53.622Z,101750.25
2024-05-09T10:39:24.498Z,101730.31
2024-05-09T10:41:52.440Z,101750.19
2024-05-09T10:44:24.939Z,101723.75
2024-05-09T10:46:55.772Z,101741.63
2024-05-09T10:49:26.350Z,101715.81
2024-05-09T10:51:54.112Z,101749.09
2024-05-09T10:54:24.785Z,101753.63
2024-05-09T10:56:57.365Z,101738.16
2024-05-09T10:59:28.226Z,101737.41
2024-05-09T11:01:58.980Z,101727.13
2024-05-09T11:04:31.206Z,101732.72
2024-05-09T11:07:02.901Z,101697.28
2024-05-09T11:09:36.648Z,101728.25
2024-05-09T11:12:05.918Z,101681.19
2024-05-09T11:14:36.344Z,101731.09
2024-05-09T11:17:08.524Z,101703.03
2024-05-09T11:19:42.312Z,101708.00
2024-05-09T11:22:10.349Z,101717.69
2024-05-09T11:24:41.026Z,101719.38
2024-05-09T11:27:08.588Z,101714.50
2024-05-09T11:29:43.272Z,101697.63
2024-05-09T11:32:16.824Z,101684.34
2024-05-09T11:34:47.134Z,101714.72
2024-05-09T11:37:15.035Z,101678.19
2024-05-09T11:39:45.451Z,101678.44
2024-05-09T11:42:13.097Z,101697.50
2024-05-09T11:44:43.667Z,101707.78
2024-05-09T11:47:14.054Z,101703.41
2024-05-09T11:49:44.658Z,101694.59
2024-05-09T11:52:12.709Z,101700.50
2024-05-09T11:54:43.288Z,101700.69
2024-05-09T11:57:11.035Z,101670.00
2024-05-09T11:59:41.422Z,101651.91
2024-05-09T12:02:10.959Z,101688.88
2024-05-09T12:04:43.991Z,101652.38
2024-05-09T12:07:17.936Z,101578.25
2024-05-09T12:09:48.665Z,101688.72
2024-05-09T12:12:16.415Z,101680.50
2024-05-09T12:14:48.970Z,101661.28
2024-05-09T12:17:16.857Z,101678.84
2024-05-09T12:19:49.745Z,101686.13
2024-05-09T12:22:17.430Z,101609.31
2024-05-09T12:24:48.160Z,101668.97
2024-05-09T12:27:16.021Z,101666.72
2024-05-09T12:29:46.574Z,101663.72
2024-05-09T12:32:14.170Z,101652.75
2024-05-09T12:34:44.764Z,101664.50
2024-05-09T12:37:15.701Z,101663.09
2024-05-09T12:39:46.128Z,101610.19
2024-05-09T12:42:26.039Z,101654.59
2024-05-09T12:44:57.671Z,101650.72
2024-05-09T12:47:25.444Z,101653.91
2024-05-09T12:49:56.110Z,101649.72
2024-05-09T12:52:26.368Z,101609.63
2024-05-09T12:54:56.997Z,101643.53
2024-05-09T12:57:25.650Z,101646.19
2024-05-09T12:59:56.186Z,101637.25
2024-05-09T13:02:24.390Z,101625.38
2024-05-09T13:04:56.338Z,101619.91
2024-05-09T13:07:26.699Z,101617.69
2024-05-09T13:09:57.013Z,101618.34
2024-05-09T13:12:27.187Z,101616.84
2024-05-09T13:14:57.731Z,101612.88
2024-05-09T13:17:25.872Z,101579.44
2024-05-09T13:19:56.453Z,101608.19
2024-05-09T13:22:26.712Z,101604.84
2024-05-09T13:24:57.144Z,101611.13
2024-05-09T13:27:25.192Z,101601.22
2024-05-09T13:29:57.351Z,101601.28
2024-05-09T13:32:25.356Z,101595.81
2024-05-09T13:34:55.981Z,101556.03
2024-05-09T13:37:26.299Z,101602.63
2024-05-09T13:39:56.907Z,101592.75
2024-05-09T13:42:24.809Z,101592.19
2024-05-09T13:44:55.326Z,101592.34
2024-05-09T13:47:25.458Z,101584.56
2024-05-09T13:49:55.830Z,101589.72
2024-05-09T13:52:27.419Z,101577.34
2024-05-09T13:54:58.434Z,101581.25
2024-05-09T13:57:26.754Z,101574.03
2024-05-09T13:59:57.311Z,101567.56
2024-05-09T14:02:25.439Z,101564.66
2024-05-09T14:04:55.845Z,101489.22
2024-05-09T14:07:26.249Z,101563.44
2024-05-09T14:09:56.634Z,101529.13
2024-05-09T14:12:24.522Z,101557.59
2024-05-09T14:14:55.584Z,101558.09
2024-05-09T14:17:23.314Z,101528.28
2024-05-09T14:19:53.881Z,101555.91
2024-05-09T14:22:23.117Z,101515.88
2024-05-09T14:24:55.985Z,101428.75
2024-05-09T14:27:23.719Z,101541.22
2024-05-09T14:29:54.089Z,101517.16
2024-05-09T14:32:21.867Z,101538.38
2024-05-09T14:34:52.459Z,101535.75
2024-05-09T14:37:20.273Z,101505.13
2024-05-09T14:39:50.583Z,101525.50
2024-05-09T14:42:22.625Z,101502.53
2024-05-09T14:44:52.836Z,101525.78
2024-05-09T14:47:23.788Z,101518.31
2024-05-09T14:49:54.157Z,101527.03
2024-05-09T14:52:22.012Z,101518.50
2024-05-09T14:54:59.969Z,101475.09
2024-05-09T14:57:31.272Z,101469.91
2024-05-09T15:00:01.535Z,101503.88
2024-05-09T15:02:29.495Z,101501.06
2024-05-09T15:05:01.446Z,101492.88
2024-05-09T15:07:29.765Z,101491.34
2024-05-09T15:10:00.273Z,101465.88
2024-05-09T15:12:30.662Z,101382.84
2024-05-09T15:15:01.222Z,101494.19
2024-05-09T15:17:29.042Z,101418.22
2024-05-09T15:19:59.716Z,101494.38
2024-05-09T15:22:27.677Z,101485.88
2024-05-09T15:24:58.235Z,101486.69
2024-05-09T15:27:26.017Z,101484.00
2024-05-09T15:30:02.702Z,101446.56
2024-05-09T15:32:31.477Z,101485.69
2024-05-09T15:35:02.100Z,101480.03
2024-05-09T15:37:30.212Z,101479.38
2024-05-09T15:40:00.892Z,101474.94
2024-05-09T15:42:28.929Z,101470.56
2024-05-09T15:45:01.834Z,101464.47
2024-05-09T15:47:29.992Z,101467.94
2024-05-09T15:50:00.741Z,101467.69
2024-05-09T15:52:28.835Z,101467.53
2024-05-09T15:54:59.650Z,101462.56
2024-05-09T15:57:29.172Z,101427.75
2024-05-09T16:00:15.122Z,101452.16
2024-05-09T16:02:49.788Z,101452.50
2024-05-09T16:05:20.509Z,101456.72
2024-05-09T16:07:48.767Z,101461.53
2024-05-09T16:10:25.578Z,101459.84
2024-05-09T16:12:57.755Z,101448.97
2024-05-09T16:15:31.177Z,101303.13
2024-05-09T16:18:00.015Z,101450.16
2024-05-09T16:20:38.844Z,101423.47
2024-05-09T16:23:12.943Z,101453.44
2024-05-09T16:25:48.307Z,101445.66
2024-05-09T16:28:23.060Z,101451.31
2024-05-09T16:30:55.319Z,101340.59
2024-05-09T16:33:26.354Z,101420.78
2024-05-09T16:35:55.185Z,101407.88
2024-05-09T16:38:26.022Z,101432.78
2024-05-09T16:40:54.574Z,101380.19
2024-05-09T16:43:25.565Z,101439.34
2024-05-09T16:45:56.104Z,101332.81
2024-05-09T16:48:27.010Z,101445.09
2024-05-09T16:50:55.298Z,101449.03
2024-05-09T16:53:25.854Z,101315.47
2024-05-09T16:55:53.911Z,101437.19
2024-05-09T16:58:24.805Z,101437.56
2024-05-09T17:01:07.709Z,101366.81
2024-05-09T17:03:39.006Z,101436.84
2024-05-09T17:06:07.727Z,101433.03
2024-05-09T17:08:40.490Z,101430.06
2024-05-09T17:11:08.649Z,101433.34
2024-05-09T17:13:40.967Z,101430.25
2024-05-09T17:16:15.700Z,101300.22
2024-05-09T17:18:46.469Z,101251.31
2024-05-09T17:21:15.220Z,101428.38
2024-05-09T17:23:45.944Z,101424.25
2024-05-09T17:26:14.286Z,101428.97
2024-05-09T17:28:44.808Z,101243.31
2024-05-09T17:31:17.688Z,101405.16
2024-05-09T17:33:48.453Z,101428.63
2024-05-09T17:36:16.334Z,101408.28
2024-05-09T17:38:47.132Z,101423.41
2024-05-09T17:41:15.277Z,101426.53
2024-05-09T17:43:46.995Z,101422.97
2024-05-09T17:46:17.680Z,101421.72
2024-05-09T17:48:48.290Z,101430.34
2024-05-09T17:51:16.499Z,101433.34
2024-05-09T17:53:47.986Z,101422.16
2024-05-09T17:56:16.297Z,101421.25
2024-05-09T17:58:48.947Z,101422.78
2024-05-09T18:04:04.092Z,101421.72
2024-05-09T18:06:34.827Z,101424.41
2024-05-09T18:09:05.732Z,101425.09
2024-05-09T18:11:33.739Z,101424.81
2024-05-09T18:14:04.430Z,101419.31
2024-05-09T18:16:34.835Z,101406.34
2024-05-09T18:19:14.964Z,101385.47
2024-05-09T18:21:42.792Z,101393.00
2024-05-09T18:24:13.018Z,101417.03
2024-05-09T18:26:41.303Z,101427.38
2024-05-09T18:29:13.136Z,101422.56
2024-05-09T18:31:43.558Z,101410.84
2024-05-09T18:34:14.351Z,101430.00
2024-05-09T18:36:42.633Z,101425.34
2024-05-09T18:39:17.131Z,101251.06
2024-05-09T18:41:44.799Z,101398.22
2024-05-09T18:44:15.142Z,101397.47
2024-05-09T18:46:45.670Z,101365.56
2024-05-09T18:49:16.499Z,101423.41
2024-05-09T18:51:44.689Z,101432.91
2024-05-09T18:54:16.106Z,101388.56
2024-05-09T18:56:44.132Z,101432.47
2024-05-09T18:59:14.390Z,101376.81
2024-05-09T19:01:45.165Z,101439.56
2024-05-09T19:04:18.449Z,101435.50
2024-05-09T19:06:46.600Z,101405.22
2024-05-09T19:09:17.430Z,101436.94
2024-05-09T19:11:45.527Z,101440.69
2024-05-09T19:14:16.019Z,101439.22
2024-05-09T19:16:46.370Z,101401.13
2024-05-09T19:19:17.515Z,101432.06
2024-05-09T19:21:45.288Z,101357.09
2024-05-09T19:24:17.253Z,101398.56
2024-05-09T19:26:45.692Z,101437.34
2024-05-09T19:29:16.312Z,101432.25
2024-05-09T19:31:46.602Z,101434.22
2024-05-09T19:34:17.378Z,101429.94
2024-05-09T19:36:45.561Z,101429.09
2024-05-09T19:39:15.943Z,101443.34
2024-05-09T19:41:43.901Z,101439.84
2024-05-09T19:44:14.138Z,101406.53
2024-05-09T19:46:42.091Z,101435.53
2024-05-09T19:49:15.355Z,101417.19
2024-05-09T19:51:43.373Z,101437.47
2024-05-09T19:54:15.910Z,101187.84
2024-05-09T19:56:45.377Z,101436.81
2024-05-09T19:59:15.901Z,101443.19
2024-05-09T20:01:44.126Z,101442.41
2024-05-09T20:04:17.370Z,101443.44
2024-05-09T20:06:45.453Z,101442.72
2024-05-09T20:09:15.978Z,101441.97
2024-05-09T20:11:46.430Z,101443.09
2024-05-09T20:14:18.764Z,101437.06
2024-05-09T20:16:47.132Z,101437.25
2024-05-09T20:19:20.285Z,101366.31
2024-05-09T20:21:48.454Z,101408.50
2024-05-09T20:24:19.063Z,101436.59
2024-05-09T20:26:47.282Z,101375.28
2024-05-09T20:29:17.967Z,101438.47
2024-05-09T20:31:48.954Z,101430.53
2024-05-09T20:34:22.172Z,101437.66
2024-05-09T20:36:52.545Z,101433.28
2024-05-09T20:39:29.175Z,101394.75
2024-05-09T20:41:57.950Z,101435.22
2024-05-09T20:44:28.629Z,101434.44
2024-05-09T20:46:56.272Z,101381.84
2024-05-09T20:49:29.343Z,101436.34
2024-05-09T20:51:57.863Z,101440.00
2024-05-09T20:54:28.163Z,101398.78
2024-05-09T20:56:55.759Z,101438.41
2024-05-09T20:59:26.019Z,101430.47
2024-05-09T21:02:02.846Z,101395.41
2024-05-09T21:04:58.582Z,101440.25
2024-05-09T21:07:48.872Z,101439.41
2024-05-09T21:10:22.520Z,101425.34
2024-05-09T21:12:54.293Z,101438.59
2024-05-09T21:15:22.313Z,101441.31
2024-05-09T21:17:52.883Z,101442.22
2024-05-09T21:20:28.854Z,101434.38
2024-05-09T21:23:02.597Z,101441.41
2024-05-09T21:25:30.862Z,101451.91
2024-05-09T21:28:01.483Z,101439.50
2024-05-09T21:30:38.578Z,101444.84
2024-05-09T21:33:14.631Z,101444.06
2024-05-09T21:35:45.845Z,101440.56
2024-05-09T21:38:18.328Z,101388.88
2024-05-09T21:40:46.468Z,101432.84
2024-05-09T21:43:17.133Z,101425.84
2024-05-09T21:45:45.116Z,101428.56
2024-05-09T21:48:16.226Z,101360.13
2024-05-09T21:50:46.486Z,101436.59
2024-05-09T21:53:17.513Z,101440.16
2024-05-09T21:55:46.524Z,101431.34
2024-05-09T21:58:17.576Z,101398.88
2024-05-09T22:00:46.600Z,101433.16
2024-05-09T22:03:17.818Z,101434.06
2024-05-09T22:05:48.272Z,101420.88
2024-05-09T22:08:18.566Z,101390.19
2024-05-09T22:10:46.544Z,101431.47
2024-05-09T22:13:19.174Z,101389.31
2024-05-09T22:15:47.072Z,101378.75
2024-05-09T22:18:17.655Z,101434.09
2024-05-09T22:20:48.403Z,101426.22
2024-05-09T22:23:18.978Z,101427.13
2024-05-09T22:25:46.905Z,101432.41
2024-05-09T22:28:18.316Z,101422.72
2024-05-09T22:30:47.306Z,101421.00
2024-05-09T22:33:18.590Z,101428.88
2024-05-09T22:35:49.239Z,101420.94
2024-05-09T22:38:19.976Z,101421.81
2024-05-09T22:40:49.913Z,101421.81
2024-05-09T22:43:24.059Z,101423.59
2024-05-09T22:45:54.993Z,101429.78
2024-05-09T22:48:26.474Z,101426.25
2024-05-09T22:50:57.167Z,101428.03
2024-05-09T22:53:28.010Z,101361.34
2024-05-09T22:55:55.968Z,101425.47
2024-05-09T22:58:26.587Z,101427.28
2024-05-09T23:00:54.727Z,101418.53
2024-05-09T23:03:25.681Z,101421.19
2024-05-09T23:05:56.150Z,101422.06
2024-05-09T23:08:26.611Z,101420.34
2024-05-09T23:10:54.842Z,101415.00
2024-05-09T23:13:25.691Z,101410.59
2024-05-09T23:15:53.710Z,101418.56
2024-05-09T23:18:24.275Z,101419.47
2024-05-09T23:20:52.181Z,101413.31
2024-05-09T23:23:25.181Z,101413.34
2024-05-09T23:25:53.250Z,101416.00
2024-05-09T23:28:24.106Z,101419.56
2024-05-09T23:30:52.146Z,101417.78
2024-05-09T23:33:22.450Z,101369.44
2024-05-09T23:35:50.461Z,101406.28
2024-05-09T23:38:23.821Z,101400.13
2024-05-09T23:40:54.833Z,101402.75
2024-05-09T23:43:25.715Z,101397.50
2024-05-09T23:45:53.702Z,101395.78
2024-05-09T23:48:24.246Z,101401.97
2024-05-09T23:50:52.163Z,101401.09
2024-05-09T23:53:22.703Z,101403.78
2024-05-09T23:55:53.283Z,101397.66
2024-05-09T23:58:24.001Z,101398.56
